Page Municipal Airport
KPGA : now visible

Airfield :











YOU CAN JOIN US ON...

 
LOGIN :

Register | Disclaimer

   EN    FR    IT 

 









Legend :    VFR   Marginal VFR   IFR   Intensive IFR   Very Intensive IFR
Visi :
Ceiling :
>= 8 km
>= 3000ft
5 to 8 km
1000 to 3000 ft
1500m to 5 km
500 to 1000 ft
800 to 1500m
200 to 500 ft
< 800m
< 200 ft
Symbols :   Thunderstorms  Fog  Heavy snow  Heavy precipitations  Wind > 20 kt






- Airport Elevation : 4316 ft


KPGA - Page Municipal

CURRENT METAR :
  • 100653Z AUTO 21004KT 10SM CLR 10/M05 A3002 RMK AO2 SLP133 T01001050 401830072 TSNO

EXPIRED METARs :
  • 100553Z AUTO 00000KT 10SM CLR 11/M05 A3000 RMK AO2 SLP131 T01061050 10183 20106 50003 TSNO
  • 100453Z AUTO 28006KT 10SM CLR 12/M05 A3001 RMK AO2 SLP128 T01221050 TSNO

TAF KPGA
Valid from the 10 at 06:00 until the 11 at 06:00 UTC


100520Z 1006/1106 VRB05KT P6SM SKC



MET'MAP, your aeronautical weather chart ! - Copyright ORBIFLY December 2007 - Disclaimer

ORBIFLY MET'MAP TEAM :

Programming & Development : Alexandra Zaïnal
Concept & original design : Baudouin d'Aumeries
Assistance for programming : Marc-Olivier Méhu
Technical & hardware support : Manuel Goepfert

Contact : metmap@orbifly.com




SOURCES & CREDITS :

   NOAA       Earth
Advisory